Viewfield, South Dakota
Current Conditions -  °F | °C
As of 7:52 PM on Monday 22 Dec 2014 (Local Time) from KRAP Reporting Station
Light Snow Light Snow  
Wind Chill: 14°   Ceiling: 1600
Heat Index: 30°   Visibility: 1mi
Dew Point: 26°   Wind: 32mph
Humidity: 85%   Direction: 340°NNW
Pressure: 29.67"   Gusts: 44mph
Location:  43.9974°N, 102.716°W
Report Text: KRAP 230252Z 34028G38KT 1SM -SN BR FEW008 OVC016 M01/M03 A2967 RMK AO2 PK WND 34042/0241 SLP070 P0003 60003 T10111033 53024
Loading
Personal Weather Stations






























Interactive Weather Map New forecast layout! Learn more

10-Day Weather Forecast

Advertisements
Track Severe Weather on mobile